createdAt,value
2018-04-29T00:01:49.107Z,7.50
2018-04-29T00:04:16.630Z,7.53
2018-04-29T00:06:44.161Z,8.73
2018-04-29T00:09:11.718Z,7.63
2018-04-29T00:11:39.222Z,7.07
2018-04-29T00:14:06.719Z,6.57
2018-04-29T00:16:34.177Z,7.37
2018-04-29T00:19:01.667Z,7.57
2018-04-29T00:21:29.148Z,7.03
2018-04-29T00:23:56.635Z,7.10
2018-04-29T00:26:24.116Z,6.90
2018-04-29T00:28:51.642Z,7.10
2018-04-29T00:31:19.449Z,6.83
2018-04-29T00:33:46.927Z,6.67
2018-04-29T00:36:14.429Z,6.90
2018-04-29T00:38:41.998Z,6.73
2018-04-29T00:41:09.433Z,7.20
2018-04-29T00:43:36.206Z,7.37
2018-04-29T00:46:03.685Z,7.93
2018-04-29T00:48:31.168Z,8.17
2018-04-29T00:50:58.636Z,8.40
2018-04-29T00:53:26.116Z,8.33
2018-04-29T00:55:53.616Z,7.43
2018-04-29T00:58:21.119Z,9.00
2018-04-29T01:00:48.640Z,8.43
2018-04-29T01:03:16.102Z,8.43
2018-04-29T01:05:43.637Z,8.20
2018-04-29T01:08:11.168Z,9.80
2018-04-29T01:10:38.646Z,8.37
2018-04-29T01:13:06.134Z,8.33
2018-04-29T01:15:33.608Z,8.63
2018-04-29T01:18:01.133Z,8.90
2018-04-29T01:20:28.679Z,9.00
2018-04-29T01:22:56.228Z,8.83
2018-04-29T01:25:23.710Z,8.50
2018-04-29T01:27:51.201Z,9.00
2018-04-29T01:30:18.683Z,8.20
2018-04-29T01:32:46.182Z,8.77
2018-04-29T01:35:13.686Z,8.47
2018-04-29T01:37:41.186Z,8.20
2018-04-29T01:40:08.685Z,6.87
2018-04-29T01:42:36.184Z,8.17
2018-04-29T01:45:03.709Z,8.93
2018-04-29T01:47:31.202Z,7.53
2018-04-29T01:49:58.727Z,9.20
2018-04-29T01:52:26.220Z,8.87
2018-04-29T01:54:53.718Z,8.73
2018-04-29T01:57:21.228Z,9.07
2018-04-29T01:59:48.740Z,8.40
2018-04-29T02:02:16.229Z,9.80
2018-04-29T02:04:43.707Z,8.23
2018-04-29T02:07:11.224Z,8.70
2018-04-29T02:09:38.743Z,10.30
2018-04-29T02:12:06.255Z,8.63
2018-04-29T02:14:33.743Z,7.33
2018-04-29T02:17:01.235Z,9.47
2018-04-29T02:19:28.757Z,10.03
2018-04-29T02:21:56.262Z,9.40
2018-04-29T02:24:23.771Z,8.93
2018-04-29T02:26:51.241Z,8.90
2018-04-29T02:29:18.723Z,8.57
2018-04-29T02:31:46.223Z,9.03
2018-04-29T02:34:13.738Z,9.83
2018-04-29T02:36:41.232Z,9.00
2018-04-29T02:39:08.832Z,9.57
2018-04-29T02:41:36.331Z,8.53
2018-04-29T02:44:03.828Z,9.30
2018-04-29T02:46:31.351Z,8.73
2018-04-29T02:48:58.839Z,9.03
2018-04-29T02:51:26.339Z,8.90
2018-04-29T02:53:53.816Z,8.97
2018-04-29T02:56:21.305Z,8.37
2018-04-29T02:58:48.816Z,9.70
2018-04-29T03:01:16.328Z,8.60
2018-04-29T03:03:43.829Z,9.13
2018-04-29T03:06:11.351Z,9.80
2018-04-29T03:08:38.842Z,8.60
2018-04-29T03:11:06.315Z,9.23
2018-04-29T03:13:33.799Z,9.03
2018-04-29T03:16:01.247Z,9.70
2018-04-29T03:18:28.746Z,10.10
2018-04-29T03:20:56.236Z,10.10
2018-04-29T03:23:23.721Z,8.93
2018-04-29T03:25:51.228Z,9.13
2018-04-29T03:28:18.727Z,10.53
2018-04-29T03:30:46.237Z,9.70
2018-04-29T03:33:13.718Z,11.07
2018-04-29T03:35:41.308Z,11.57
2018-04-29T03:38:08.752Z,11.53
2018-04-29T03:40:36.246Z,11.43
2018-04-29T03:43:03.743Z,12.47
2018-04-29T03:45:31.236Z,12.30
2018-04-29T03:47:58.748Z,14.50
2018-04-29T03:50:26.251Z,13.93
2018-04-29T03:52:53.729Z,12.50
2018-04-29T03:58:06.609Z,12.07
2018-04-29T04:00:49.133Z,13.70
2018-04-29T04:03:28.361Z,12.93
2018-04-29T04:05:55.852Z,12.40
2018-04-29T04:08:23.860Z,13.40
2018-04-29T04:10:51.374Z,11.90
2018-04-29T04:13:19.431Z,12.10
2018-04-29T04:15:46.935Z,13.80
2018-04-29T04:18:15.479Z,13.47
2018-04-29T04:20:42.943Z,12.30
2018-04-29T04:23:10.455Z,13.17
2018-04-29T04:25:38.012Z,12.40
2018-04-29T04:28:05.505Z,12.70
2018-04-29T04:30:33.015Z,13.83
2018-04-29T04:33:00.519Z,12.50
2018-04-29T04:35:28.011Z,13.80
2018-04-29T04:37:55.520Z,12.37
2018-04-29T04:40:23.015Z,11.83
2018-04-29T04:42:50.493Z,12.90
2018-04-29T04:45:18.131Z,12.90
2018-04-29T04:47:45.645Z,13.37
2018-04-29T04:50:13.122Z,12.20
2018-04-29T04:52:40.609Z,14.77
2018-04-29T04:55:08.100Z,13.33
2018-04-29T04:57:35.586Z,12.70
2018-04-29T05:00:03.073Z,12.90
2018-04-29T05:02:30.563Z,13.83
2018-04-29T05:04:58.040Z,12.53
2018-04-29T05:09:58.177Z,12.60
2018-04-29T05:12:26.319Z,12.37
2018-04-29T05:14:53.802Z,12.20
2018-04-29T05:17:21.290Z,12.10
2018-04-29T05:19:48.796Z,11.93
2018-04-29T05:22:16.389Z,12.30
2018-04-29T05:24:43.877Z,14.17
2018-04-29T05:27:11.373Z,12.70
2018-04-29T05:29:38.852Z,12.60
2018-04-29T05:32:06.347Z,12.43
2018-04-29T05:34:33.847Z,14.43
2018-04-29T05:37:01.336Z,13.23
2018-04-29T05:39:28.814Z,13.27
2018-04-29T05:41:56.310Z,13.63
2018-04-29T05:44:23.829Z,12.70
2018-04-29T05:46:51.335Z,13.43
2018-04-29T05:49:18.868Z,12.93
2018-04-29T05:51:46.487Z,12.80
2018-04-29T05:54:13.980Z,12.70
2018-04-29T05:56:41.487Z,12.87
2018-04-29T05:59:09.089Z,12.90
2018-04-29T06:01:36.896Z,12.47
2018-04-29T06:04:04.419Z,12.20
2018-04-29T06:06:31.947Z,13.77
2018-04-29T06:09:00.211Z,13.37
2018-04-29T06:11:27.732Z,14.00
2018-04-29T06:13:55.225Z,13.33
2018-04-29T06:16:22.706Z,13.07
2018-04-29T06:18:50.193Z,13.00
2018-04-29T06:21:17.691Z,15.07
2018-04-29T06:23:46.104Z,13.27
2018-04-29T06:26:13.608Z,14.10
2018-04-29T06:28:41.123Z,12.80
2018-04-29T06:31:08.697Z,11.50
2018-04-29T06:33:36.228Z,12.97
2018-04-29T06:36:03.753Z,13.10
2018-04-29T06:38:31.266Z,12.40
2018-04-29T06:40:59.266Z,12.80
2018-04-29T06:43:26.807Z,12.20
2018-04-29T06:45:54.321Z,11.83
2018-04-29T06:48:21.822Z,12.43
2018-04-29T06:50:49.327Z,10.90
2018-04-29T06:53:16.922Z,10.67
2018-04-29T06:55:44.438Z,11.53
2018-04-29T06:58:11.920Z,10.60
2018-04-29T07:00:39.441Z,12.07
2018-04-29T07:03:06.947Z,11.20
2018-04-29T07:05:34.463Z,11.60
2018-04-29T07:08:02.033Z,9.70
2018-04-29T07:10:29.544Z,8.90
2018-04-29T07:12:57.037Z,8.60
2018-04-29T07:15:24.547Z,9.07
2018-04-29T07:17:52.055Z,8.50
2018-04-29T07:20:19.895Z,9.00
2018-04-29T07:22:47.379Z,8.90
2018-04-29T07:25:14.870Z,9.40
2018-04-29T07:27:42.351Z,9.23
2018-04-29T07:30:09.856Z,9.10
2018-04-29T07:32:37.373Z,9.07
2018-04-29T07:35:04.919Z,9.10
2018-04-29T07:37:32.451Z,8.60
2018-04-29T07:40:00.056Z,8.80
2018-04-29T07:42:27.554Z,8.40
2018-04-29T07:44:55.067Z,9.07
2018-04-29T07:47:22.629Z,8.60
2018-04-29T07:49:50.131Z,7.40
2018-04-29T07:52:17.747Z,9.17
2018-04-29T07:54:45.199Z,9.27
2018-04-29T07:57:12.811Z,9.00
2018-04-29T07:59:41.591Z,8.73
2018-04-29T08:02:09.128Z,8.20
2018-04-29T08:04:36.683Z,8.90
2018-04-29T08:07:04.218Z,9.03
2018-04-29T08:09:31.692Z,8.50
2018-04-29T08:11:59.166Z,8.80
2018-04-29T08:14:26.642Z,7.87
2018-04-29T08:16:54.215Z,7.30
2018-04-29T08:19:21.707Z,8.00
2018-04-29T08:21:49.268Z,8.80
2018-04-29T08:24:16.978Z,8.10
2018-04-29T08:26:44.507Z,8.13
2018-04-29T08:29:12.216Z,8.00
2018-04-29T08:31:39.831Z,7.47
2018-04-29T08:34:07.378Z,7.10
2018-04-29T08:36:34.880Z,6.50
2018-04-29T08:39:02.408Z,6.93
2018-04-29T08:41:29.929Z,6.10
2018-04-29T08:43:57.495Z,6.57
2018-04-29T08:46:24.987Z,7.40
2018-04-29T08:48:52.491Z,6.53
2018-04-29T08:51:20.003Z,7.10
2018-04-29T08:53:47.539Z,7.53
2018-04-29T08:56:15.357Z,6.67
2018-04-29T08:58:42.852Z,6.57
2018-04-29T09:01:10.397Z,5.83
2018-04-29T09:03:37.981Z,6.70
2018-04-29T09:06:05.503Z,6.90
2018-04-29T09:08:33.012Z,7.60
2018-04-29T09:11:00.538Z,6.87
2018-04-29T09:13:28.048Z,7.00
2018-04-29T09:15:55.571Z,6.80
2018-04-29T09:18:23.357Z,6.77
2018-04-29T09:20:50.896Z,6.80
2018-04-29T09:23:18.547Z,7.17
2018-04-29T09:25:46.060Z,6.93
2018-04-29T09:28:13.551Z,7.03
2018-04-29T09:30:41.044Z,7.73
2018-04-29T09:33:08.546Z,7.37
2018-04-29T09:35:36.026Z,7.40
2018-04-29T09:38:03.519Z,7.47
2018-04-29T09:40:31.153Z,7.30
2018-04-29T09:42:58.638Z,7.00
2018-04-29T09:45:26.136Z,7.70
2018-04-29T09:47:53.623Z,7.93
2018-04-29T09:50:21.180Z,7.80
2018-04-29T09:52:48.695Z,6.60
2018-04-29T09:55:16.235Z,7.23
2018-04-29T09:57:43.699Z,7.93
2018-04-29T10:00:11.262Z,7.80
2018-04-29T10:02:44.427Z,7.27
2018-04-29T10:05:11.944Z,8.10
2018-04-29T10:07:39.431Z,6.73
2018-04-29T10:10:06.916Z,6.67
2018-04-29T10:12:34.447Z,7.40
2018-04-29T10:15:01.984Z,6.50
2018-04-29T10:17:29.512Z,6.73
2018-04-29T10:19:57.007Z,6.90
2018-04-29T10:22:24.512Z,7.30
2018-04-29T10:24:52.093Z,6.67
2018-04-29T10:27:19.611Z,6.27
2018-04-29T10:29:47.150Z,7.40
2018-04-29T10:32:14.700Z,6.80
2018-04-29T10:34:42.215Z,7.20
2018-04-29T10:37:09.742Z,6.57
2018-04-29T10:39:37.396Z,5.73
2018-04-29T10:42:04.934Z,6.70
2018-04-29T10:44:32.431Z,6.70
2018-04-29T10:46:59.951Z,7.00
2018-04-29T10:49:27.503Z,6.47
2018-04-29T10:51:55.052Z,6.37
2018-04-29T10:54:22.531Z,7.37
2018-04-29T10:56:50.015Z,6.60
2018-04-29T10:59:17.559Z,6.80
2018-04-29T11:01:45.131Z,6.30
2018-04-29T11:04:12.618Z,7.37
2018-04-29T11:06:40.139Z,6.60
2018-04-29T11:09:07.682Z,6.00
2018-04-29T11:11:35.196Z,7.20
2018-04-29T11:14:02.747Z,6.23
2018-04-29T11:16:30.270Z,6.63
2018-04-29T11:18:57.879Z,6.27
2018-04-29T11:21:25.862Z,6.67
2018-04-29T11:23:53.347Z,6.03
2018-04-29T11:26:20.863Z,6.03
2018-04-29T11:28:48.389Z,6.10
2018-04-29T11:31:15.902Z,6.80
2018-04-29T11:33:43.440Z,5.87
2018-04-29T11:36:11.011Z,5.83
2018-04-29T11:38:38.505Z,5.20
2018-04-29T11:41:06.004Z,5.57
2018-04-29T11:43:34.894Z,5.13
2018-04-29T11:46:02.409Z,5.53
2018-04-29T11:48:30.616Z,4.83
2018-04-29T11:50:58.103Z,5.90
2018-04-29T11:53:25.690Z,3.97
2018-04-29T11:55:53.241Z,5.10
2018-04-29T11:58:20.811Z,5.47
2018-04-29T12:00:48.364Z,5.97
2018-04-29T12:03:15.952Z,5.40
2018-04-29T12:05:43.483Z,5.53
2018-04-29T12:08:11.029Z,5.77
2018-04-29T12:10:38.615Z,4.63
2018-04-29T12:13:06.171Z,5.10
2018-04-29T12:15:33.967Z,4.93
2018-04-29T12:18:01.527Z,4.50
2018-04-29T12:20:29.147Z,5.00
2018-04-29T12:22:56.696Z,5.33
2018-04-29T12:25:24.214Z,4.87
2018-04-29T12:27:51.745Z,5.70
2018-04-29T12:30:19.320Z,4.30
2018-04-29T12:32:46.816Z,4.50
2018-04-29T12:35:14.304Z,4.13
2018-04-29T12:37:41.895Z,4.47
2018-04-29T12:40:09.491Z,4.30
2018-04-29T12:42:37.071Z,4.70
2018-04-29T12:45:04.568Z,4.33
2018-04-29T12:47:32.044Z,4.50
2018-04-29T12:49:59.644Z,4.90
2018-04-29T12:52:27.118Z,4.23
2018-04-29T12:54:54.677Z,4.03
2018-04-29T12:57:22.167Z,5.43
2018-04-29T12:59:49.945Z,4.57
2018-04-29T13:02:17.422Z,4.30
2018-04-29T13:04:44.964Z,5.43
2018-04-29T13:07:12.523Z,4.93
2018-04-29T13:09:40.016Z,5.80
2018-04-29T13:12:07.504Z,6.07
2018-04-29T13:14:35.046Z,5.63
2018-04-29T13:17:02.566Z,5.00
2018-04-29T13:19:30.886Z,5.50
2018-04-29T13:21:58.395Z,4.53
2018-04-29T13:24:25.873Z,5.23
2018-04-29T13:26:53.347Z,5.73
2018-04-29T13:29:20.832Z,4.67
2018-04-29T13:31:48.373Z,5.03
2018-04-29T13:34:15.913Z,4.60
2018-04-29T13:36:43.457Z,5.20
2018-04-29T13:39:10.954Z,5.73
2018-04-29T13:41:38.467Z,4.80
2018-04-29T13:44:06.007Z,4.93
2018-04-29T13:46:33.505Z,4.57
2018-04-29T13:49:00.983Z,4.30
2018-04-29T13:51:28.523Z,4.63
2018-04-29T13:53:56.029Z,5.00
2018-04-29T13:56:23.628Z,5.60
2018-04-29T13:58:51.230Z,4.80
2018-04-29T14:01:18.754Z,5.00
2018-04-29T14:03:46.249Z,5.07
2018-04-29T14:06:13.812Z,4.93
2018-04-29T14:08:41.299Z,4.87
2018-04-29T14:11:08.799Z,4.80
2018-04-29T14:13:36.317Z,4.80
2018-04-29T14:16:05.919Z,5.13
2018-04-29T14:18:33.384Z,4.93
2018-04-29T14:21:00.896Z,5.07
2018-04-29T14:23:28.464Z,4.63
2018-04-29T14:25:56.055Z,5.43
2018-04-29T14:28:23.562Z,5.70
2018-04-29T14:30:51.050Z,4.97
2018-04-29T14:33:18.632Z,5.97
2018-04-29T14:35:46.140Z,5.47
2018-04-29T14:38:13.633Z,5.00
2018-04-29T14:40:41.116Z,4.97
2018-04-29T14:43:08.677Z,5.13
2018-04-29T14:45:36.182Z,5.05
2018-04-29T14:48:03.672Z,4.97
2018-04-29T14:50:31.181Z,5.50
2018-04-29T14:52:58.677Z,5.80
2018-04-29T14:55:26.177Z,5.30
2018-04-29T14:57:53.710Z,5.65
2018-04-29T15:00:21.198Z,5.30
2018-04-29T15:02:48.703Z,5.70
2018-04-29T15:05:16.189Z,5.78
2018-04-29T15:07:43.681Z,6.00
2018-04-29T15:10:11.192Z,5.20
2018-04-29T15:12:38.695Z,5.85
2018-04-29T15:15:06.187Z,5.62
2018-04-29T15:17:33.719Z,5.40
2018-04-29T15:20:01.257Z,5.43
2018-04-29T15:22:28.806Z,5.70
2018-04-29T15:24:56.260Z,5.25
2018-04-29T15:27:23.723Z,5.47
2018-04-29T15:29:51.522Z,5.37
2018-04-29T15:32:19.005Z,5.90
2018-04-29T15:34:46.516Z,5.75
2018-04-29T15:37:14.010Z,5.60
2018-04-29T15:39:41.494Z,5.57
2018-04-29T15:42:08.996Z,5.57
2018-04-29T15:44:36.472Z,5.72
2018-04-29T15:47:03.926Z,5.35
2018-04-29T15:49:31.416Z,6.00
2018-04-29T15:51:58.906Z,5.07
2018-04-29T15:54:26.376Z,5.25
2018-04-29T15:56:53.962Z,5.03
2018-04-29T15:59:21.430Z,5.25
2018-04-29T16:01:48.947Z,5.45
2018-04-29T16:04:16.446Z,5.55
2018-04-29T16:06:43.973Z,5.47
2018-04-29T16:09:11.542Z,5.43
2018-04-29T16:11:39.090Z,6.20
2018-04-29T16:14:06.576Z,5.80
2018-04-29T16:16:34.067Z,6.22
2018-04-29T16:19:01.557Z,5.50
2018-04-29T16:21:29.024Z,5.62
2018-04-29T16:23:56.552Z,4.97
2018-04-29T16:26:24.055Z,5.32
2018-04-29T16:28:51.534Z,6.05
2018-04-29T16:31:19.021Z,5.97
2018-04-29T16:33:46.523Z,5.40
2018-04-29T16:36:13.989Z,5.73
2018-04-29T16:38:41.494Z,5.25
2018-04-29T16:41:08.987Z,5.18
2018-04-29T16:43:36.843Z,6.45
2018-04-29T16:46:04.332Z,5.73
2018-04-29T16:48:31.894Z,5.50
2018-04-29T16:50:59.433Z,5.60
2018-04-29T16:53:26.974Z,6.13
2018-04-29T16:55:54.461Z,5.87
2018-04-29T16:58:21.969Z,6.50
2018-04-29T17:00:49.481Z,6.30
2018-04-29T17:03:17.041Z,5.40
2018-04-29T17:05:44.555Z,5.93
2018-04-29T17:08:12.330Z,5.03
2018-04-29T17:10:39.837Z,4.37
2018-04-29T17:13:07.306Z,5.73
2018-04-29T17:15:34.756Z,6.10
2018-04-29T17:18:02.933Z,5.90
2018-04-29T17:20:30.421Z,5.80
2018-04-29T17:22:57.901Z,5.87
2018-04-29T17:25:25.384Z,5.97
2018-04-29T17:27:52.844Z,5.90
2018-04-29T17:30:20.375Z,5.67
2018-04-29T17:32:47.875Z,6.03
2018-04-29T17:35:15.361Z,5.83
2018-04-29T17:37:42.860Z,7.00
2018-04-29T17:40:10.344Z,5.93
2018-04-29T17:42:37.841Z,5.93
2018-04-29T17:45:05.378Z,6.10
2018-04-29T17:47:33.007Z,5.97
2018-04-29T17:50:00.493Z,6.40
2018-04-29T17:52:28.003Z,6.83
2018-04-29T17:54:55.465Z,6.43
2018-04-29T17:57:23.133Z,6.83
2018-04-29T17:59:50.600Z,6.63
2018-04-29T18:02:18.064Z,5.87
2018-04-29T18:04:45.530Z,6.20
2018-04-29T18:07:13.059Z,6.50
2018-04-29T18:09:40.512Z,6.57
2018-04-29T18:12:08.000Z,7.00
2018-04-29T18:14:35.509Z,6.87
2018-04-29T18:17:03.038Z,8.43
2018-04-29T18:19:30.480Z,7.10
2018-04-29T18:21:57.957Z,6.80
2018-04-29T18:24:25.487Z,6.43
2018-04-29T18:26:52.935Z,6.30
2018-04-29T18:29:20.386Z,6.40
2018-04-29T18:31:47.842Z,6.63
2018-04-29T18:34:15.337Z,6.27
2018-04-29T18:36:42.859Z,7.10
2018-04-29T18:39:10.334Z,7.67
2018-04-29T18:41:37.875Z,6.80
2018-04-29T18:44:05.368Z,6.70
2018-04-29T18:46:34.472Z,7.47
2018-04-29T18:49:01.986Z,7.37
2018-04-29T18:51:29.638Z,6.70
2018-04-29T18:53:57.008Z,8.80
2018-04-29T18:56:24.546Z,8.67
2018-04-29T18:58:52.015Z,6.00
2018-04-29T19:01:19.516Z,6.70
2018-04-29T19:03:46.964Z,6.20
2018-04-29T19:06:14.424Z,6.60
2018-04-29T19:08:41.937Z,6.93
2018-04-29T19:11:09.526Z,7.07
2018-04-29T19:13:36.987Z,6.20
2018-04-29T19:16:04.463Z,6.90
2018-04-29T19:18:31.951Z,6.23
2018-04-29T19:20:59.507Z,7.10
2018-04-29T19:23:27.010Z,6.57
2018-04-29T19:25:54.499Z,6.87
2018-04-29T19:28:21.979Z,6.70
2018-04-29T19:30:49.437Z,6.57
2018-04-29T19:33:16.959Z,6.63
2018-04-29T19:35:44.429Z,7.77
2018-04-29T19:38:11.926Z,7.00
2018-04-29T19:43:13.208Z,7.53
2018-04-29T19:45:40.705Z,6.33
2018-04-29T19:48:08.181Z,7.27
2018-04-29T19:50:35.718Z,6.43
2018-04-29T19:53:03.197Z,6.90
2018-04-29T19:55:30.661Z,6.90
2018-04-29T19:57:58.133Z,7.30
2018-04-29T20:00:25.586Z,6.67
2018-04-29T20:02:53.157Z,7.27
2018-04-29T20:05:20.655Z,6.90
2018-04-29T20:07:48.147Z,7.00
2018-04-29T20:10:15.659Z,8.40
2018-04-29T20:12:43.146Z,7.50
2018-04-29T20:15:10.627Z,7.30
2018-04-29T20:17:38.130Z,6.90
2018-04-29T20:20:05.653Z,7.23
2018-04-29T20:22:33.166Z,6.80
2018-04-29T20:25:00.644Z,7.60
2018-04-29T20:27:28.140Z,6.53
2018-04-29T20:29:55.715Z,6.47
2018-04-29T20:32:33.770Z,7.47
2018-04-29T20:35:01.241Z,6.87
2018-04-29T20:37:28.698Z,6.93
2018-04-29T20:39:56.181Z,6.90
2018-04-29T20:42:23.653Z,7.30
2018-04-29T20:44:51.135Z,6.93
2018-04-29T20:47:18.622Z,7.13
2018-04-29T20:49:46.107Z,7.47
2018-04-29T20:52:13.577Z,6.80
2018-04-29T20:54:41.044Z,7.23
2018-04-29T20:57:08.587Z,6.63
2018-04-29T20:59:36.090Z,6.93
2018-04-29T21:02:03.607Z,6.60
2018-04-29T21:04:31.144Z,7.13
2018-04-29T21:06:58.622Z,6.90
2018-04-29T21:09:26.158Z,7.83
2018-04-29T21:11:53.634Z,6.90
2018-04-29T21:14:21.156Z,7.23
2018-04-29T21:16:48.764Z,7.17
2018-04-29T21:19:16.230Z,6.90
2018-04-29T21:21:43.748Z,7.40
2018-04-29T21:24:11.233Z,6.60
2018-04-29T21:26:38.695Z,7.50
2018-04-29T21:29:06.158Z,6.80
2018-04-29T21:31:33.624Z,6.00
2018-04-29T21:34:01.097Z,7.27
2018-04-29T21:36:28.551Z,8.13
2018-04-29T21:38:56.163Z,6.70
2018-04-29T21:41:23.622Z,7.37
2018-04-29T21:43:51.104Z,7.33
2018-04-29T21:46:18.568Z,6.77
2018-04-29T21:48:46.033Z,6.50
2018-04-29T21:51:13.555Z,8.00
2018-04-29T21:53:41.096Z,7.20
2018-04-29T21:56:08.598Z,6.90
2018-04-29T21:58:36.457Z,7.10
2018-04-29T22:01:03.955Z,7.37
2018-04-29T22:03:31.442Z,6.60
2018-04-29T22:05:58.977Z,7.20
2018-04-29T22:08:26.443Z,8.20
2018-04-29T22:10:53.916Z,7.80
2018-04-29T22:13:21.445Z,6.90
2018-04-29T22:15:48.957Z,7.53
2018-04-29T22:18:16.503Z,6.60
2018-04-29T22:20:43.980Z,7.73
2018-04-29T22:23:11.468Z,7.80
2018-04-29T22:25:38.991Z,7.20
2018-04-29T22:28:06.460Z,6.23
2018-04-29T22:30:33.961Z,7.00
2018-04-29T22:33:01.493Z,7.00
2018-04-29T22:35:28.969Z,7.50
2018-04-29T22:37:56.461Z,6.90
2018-04-29T22:40:24.017Z,7.13
2018-04-29T22:42:51.485Z,7.30
2018-04-29T22:45:22.824Z,7.10
2018-04-29T22:47:50.411Z,7.10
2018-04-29T22:50:17.872Z,7.30
2018-04-29T22:52:45.806Z,7.00
2018-04-29T22:55:13.272Z,7.00
2018-04-29T22:57:40.773Z,6.43
2018-04-29T23:00:08.343Z,6.70
2018-04-29T23:02:35.815Z,6.87
2018-04-29T23:05:03.381Z,6.90
2018-04-29T23:07:30.903Z,6.77
2018-04-29T23:09:58.359Z,7.33
2018-04-29T23:12:25.838Z,6.80
2018-04-29T23:14:53.305Z,7.30
2018-04-29T23:17:20.823Z,7.47
2018-04-29T23:19:48.366Z,8.10
2018-04-29T23:22:15.902Z,7.50
2018-04-29T23:24:43.438Z,7.40
2018-04-29T23:27:10.983Z,7.00
2018-04-29T23:29:38.976Z,6.93
2018-04-29T23:32:06.460Z,7.17
2018-04-29T23:34:33.940Z,8.20
2018-04-29T23:37:01.478Z,7.50
2018-04-29T23:39:29.023Z,7.00
2018-04-29T23:41:56.571Z,7.80
2018-04-29T23:44:24.023Z,6.97
2018-04-29T23:46:51.487Z,7.17
2018-04-29T23:49:18.971Z,7.87
2018-04-29T23:51:46.431Z,7.13
2018-04-29T23:54:13.925Z,7.57
2018-04-29T23:56:41.383Z,7.87
2018-04-29T23:59:08.869Z,6.60
